sensor_id;sensor_type;location;lat;lon;timestamp;temperature;humidity
1025;DHT22;501;48.214;11.350;2023-09-30T00:02:22;17.60;45.60
1025;DHT22;501;48.214;11.350;2023-09-30T00:04:49;17.60;45.60
1025;DHT22;501;48.214;11.350;2023-09-30T00:07:15;17.60;45.80
1025;DHT22;501;48.214;11.350;2023-09-30T00:09:40;17.50;46.00
1025;DHT22;501;48.214;11.350;2023-09-30T00:12:06;17.60;46.00
1025;DHT22;501;48.214;11.350;2023-09-30T00:14:32;17.60;46.90
1025;DHT22;501;48.214;11.350;2023-09-30T00:16:58;17.60;46.30
1025;DHT22;501;48.214;11.350;2023-09-30T00:19:23;17.60;46.20
1025;DHT22;501;48.214;11.350;2023-09-30T00:21:49;17.60;46.40
1025;DHT22;501;48.214;11.350;2023-09-30T00:24:15;17.50;46.30
1025;DHT22;501;48.214;11.350;2023-09-30T00:26:40;17.50;46.60
1025;DHT22;501;48.214;11.350;2023-09-30T00:29:07;17.60;46.90
1025;DHT22;501;48.214;11.350;2023-09-30T00:31:32;17.60;46.60
1025;DHT22;501;48.214;11.350;2023-09-30T00:33:58;17.60;46.80
1025;DHT22;501;48.214;11.350;2023-09-30T00:36:23;17.60;47.10
1025;DHT22;501;48.214;11.350;2023-09-30T00:38:49;17.60;47.10
1025;DHT22;501;48.214;11.350;2023-09-30T00:41:15;17.60;47.10
1025;DHT22;501;48.214;11.350;2023-09-30T00:43:40;17.60;47.10
1025;DHT22;501;48.214;11.350;2023-09-30T00:46:31;17.60;47.10
1025;DHT22;501;48.214;11.350;2023-09-30T00:48:58;17.60;47.10
1025;DHT22;501;48.214;11.350;2023-09-30T00:51:25;17.60;47.20
1025;DHT22;501;48.214;11.350;2023-09-30T00:53:53;17.60;47.60
1025;DHT22;501;48.214;11.350;2023-09-30T00:56:21;17.60;47.10
1025;DHT22;501;48.214;11.350;2023-09-30T00:58:48;17.60;47.10
1025;DHT22;501;48.214;11.350;2023-09-30T01:01:19;17.60;47.70
1025;DHT22;501;48.214;11.350;2023-09-30T01:03:48;17.60;47.10
1025;DHT22;501;48.214;11.350;2023-09-30T01:06:14;17.60;47.10
1025;DHT22;501;48.214;11.350;2023-09-30T01:08:41;17.60;47.40
1025;DHT22;501;48.214;11.350;2023-09-30T01:11:07;17.50;47.80
1025;DHT22;501;48.214;11.350;2023-09-30T01:13:36;17.50;47.80
1025;DHT22;501;48.214;11.350;2023-09-30T01:16:08;17.50;48.00
1025;DHT22;501;48.214;11.350;2023-09-30T01:18:38;17.50;48.00
1025;DHT22;501;48.214;11.350;2023-09-30T01:21:05;17.50;48.20
1025;DHT22;501;48.214;11.350;2023-09-30T01:23:35;17.50;48.10
1025;DHT22;501;48.214;11.350;2023-09-30T01:26:06;17.50;48.00
1025;DHT22;501;48.214;11.350;2023-09-30T01:28:32;17.50;48.20
1025;DHT22;501;48.214;11.350;2023-09-30T01:30:58;17.40;48.10
1025;DHT22;501;48.214;11.350;2023-09-30T01:33:24;17.40;48.20
1025;DHT22;501;48.214;11.350;2023-09-30T01:35:50;17.40;48.30
1025;DHT22;501;48.214;11.350;2023-09-30T01:38:15;17.40;48.30
1025;DHT22;501;48.214;11.350;2023-09-30T01:40:41;17.30;48.20
1025;DHT22;501;48.214;11.350;2023-09-30T01:43:07;17.30;48.20
1025;DHT22;501;48.214;11.350;2023-09-30T01:45:33;17.30;48.70
1025;DHT22;501;48.214;11.350;2023-09-30T01:48:01;17.20;48.80
1025;DHT22;501;48.214;11.350;2023-09-30T01:50:26;17.20;48.70
1025;DHT22;501;48.214;11.350;2023-09-30T01:52:52;17.20;48.60
1025;DHT22;501;48.214;11.350;2023-09-30T01:55:18;17.20;49.10
1025;DHT22;501;48.214;11.350;2023-09-30T01:57:44;17.20;49.50
1025;DHT22;501;48.214;11.350;2023-09-30T02:00:09;17.20;49.70
1025;DHT22;501;48.214;11.350;2023-09-30T02:02:35;17.10;49.70
1025;DHT22;501;48.214;11.350;2023-09-30T02:05:02;17.10;50.00
1025;DHT22;501;48.214;11.350;2023-09-30T02:07:28;17.10;50.20
1025;DHT22;501;48.214;11.350;2023-09-30T02:09:54;17.10;50.40
1025;DHT22;501;48.214;11.350;2023-09-30T02:12:20;17.10;50.30
1025;DHT22;501;48.214;11.350;2023-09-30T02:14:46;17.10;50.90
1025;DHT22;501;48.214;11.350;2023-09-30T02:17:12;17.10;50.70
1025;DHT22;501;48.214;11.350;2023-09-30T02:19:39;17.10;50.70
1025;DHT22;501;48.214;11.350;2023-09-30T02:22:09;17.10;50.90
1025;DHT22;501;48.214;11.350;2023-09-30T02:24:34;17.10;50.90
1025;DHT22;501;48.214;11.350;2023-09-30T02:27:01;17.10;50.80
1025;DHT22;501;48.214;11.350;2023-09-30T02:29:27;17.10;50.80
1025;DHT22;501;48.214;11.350;2023-09-30T02:31:54;17.10;51.10
1025;DHT22;501;48.214;11.350;2023-09-30T02:34:20;17.00;51.00
1025;DHT22;501;48.214;11.350;2023-09-30T02:36:45;17.00;51.10
1025;DHT22;501;48.214;11.350;2023-09-30T02:39:11;17.00;51.30
1025;DHT22;501;48.214;11.350;2023-09-30T02:41:37;17.00;51.10
1025;DHT22;501;48.214;11.350;2023-09-30T02:44:04;17.00;51.30
1025;DHT22;501;48.214;11.350;2023-09-30T02:46:29;16.90;51.60
1025;DHT22;501;48.214;11.350;2023-09-30T02:48:55;16.90;51.60
1025;DHT22;501;48.214;11.350;2023-09-30T02:51:20;16.90;51.70
1025;DHT22;501;48.214;11.350;2023-09-30T02:53:46;16.90;51.30
1025;DHT22;501;48.214;11.350;2023-09-30T02:56:14;16.80;51.40
1025;DHT22;501;48.214;11.350;2023-09-30T02:58:39;16.80;51.20
1025;DHT22;501;48.214;11.350;2023-09-30T03:01:06;16.80;51.10
1025;DHT22;501;48.214;11.350;2023-09-30T03:03:32;16.80;51.30
1025;DHT22;501;48.214;11.350;2023-09-30T03:05:59;16.80;51.70
1025;DHT22;501;48.214;11.350;2023-09-30T03:08:26;16.80;51.30
1025;DHT22;501;48.214;11.350;2023-09-30T03:10:52;16.80;51.50
1025;DHT22;501;48.214;11.350;2023-09-30T03:13:18;16.80;51.50
1025;DHT22;501;48.214;11.350;2023-09-30T03:15:47;16.80;51.50
1025;DHT22;501;48.214;11.350;2023-09-30T03:18:15;16.80;51.80
1025;DHT22;501;48.214;11.350;2023-09-30T03:20:43;16.80;51.90
1025;DHT22;501;48.214;11.350;2023-09-30T03:23:09;16.70;52.10
1025;DHT22;501;48.214;11.350;2023-09-30T03:25:35;16.70;52.20
1025;DHT22;501;48.214;11.350;2023-09-30T03:28:01;16.70;52.40
1025;DHT22;501;48.214;11.350;2023-09-30T03:30:26;16.70;52.70
1025;DHT22;501;48.214;11.350;2023-09-30T03:32:52;16.70;53.00
1025;DHT22;501;48.214;11.350;2023-09-30T03:35:18;16.70;52.90
1025;DHT22;501;48.214;11.350;2023-09-30T03:37:44;16.70;52.90
1025;DHT22;501;48.214;11.350;2023-09-30T03:40:10;16.70;53.30
1025;DHT22;501;48.214;11.350;2023-09-30T03:42:41;16.70;53.60
1025;DHT22;501;48.214;11.350;2023-09-30T03:45:08;16.70;53.60
1025;DHT22;501;48.214;11.350;2023-09-30T03:47:38;16.70;53.40
1025;DHT22;501;48.214;11.350;2023-09-30T03:50:04;16.70;53.40
1025;DHT22;501;48.214;11.350;2023-09-30T03:52:33;16.80;53.50
1025;DHT22;501;48.214;11.350;2023-09-30T03:55:02;16.80;53.40
1025;DHT22;501;48.214;11.350;2023-09-30T03:57:31;16.80;53.40
1025;DHT22;501;48.214;11.350;2023-09-30T03:59:59;16.80;53.30
1025;DHT22;501;48.214;11.350;2023-09-30T04:02:25;16.80;53.20
1025;DHT22;501;48.214;11.350;2023-09-30T04:04:51;16.80;53.30
1025;DHT22;501;48.214;11.350;2023-09-30T04:07:19;16.80;53.10
1025;DHT22;501;48.214;11.350;2023-09-30T04:09:45;16.80;53.30
1025;DHT22;501;48.214;11.350;2023-09-30T04:12:12;16.80;54.10
1025;DHT22;501;48.214;11.350;2023-09-30T04:14:37;16.80;53.60
1025;DHT22;501;48.214;11.350;2023-09-30T04:17:03;16.80;53.50
1025;DHT22;501;48.214;11.350;2023-09-30T04:19:29;16.80;53.20
1025;DHT22;501;48.214;11.350;2023-09-30T04:21:56;16.80;53.70
1025;DHT22;501;48.214;11.350;2023-09-30T04:24:22;16.80;53.60
1025;DHT22;501;48.214;11.350;2023-09-30T04:26:47;16.80;53.50
1025;DHT22;501;48.214;11.350;2023-09-30T04:29:16;16.80;53.40
1025;DHT22;501;48.214;11.350;2023-09-30T04:31:41;16.80;53.90
1025;DHT22;501;48.214;11.350;2023-09-30T04:34:07;16.80;53.30
1025;DHT22;501;48.214;11.350;2023-09-30T04:36:34;16.80;53.20
1025;DHT22;501;48.214;11.350;2023-09-30T04:39:03;16.70;53.00
1025;DHT22;501;48.214;11.350;2023-09-30T04:41:30;16.70;53.10
1025;DHT22;501;48.214;11.350;2023-09-30T04:43:56;16.70;53.20
1025;DHT22;501;48.214;11.350;2023-09-30T04:46:21;16.70;53.40
1025;DHT22;501;48.214;11.350;2023-09-30T04:48:49;16.70;53.10
1025;DHT22;501;48.214;11.350;2023-09-30T04:51:17;16.70;53.00
1025;DHT22;501;48.214;11.350;2023-09-30T04:53:44;16.60;53.00
1025;DHT22;501;48.214;11.350;2023-09-30T04:56:12;16.60;53.10
1025;DHT22;501;48.214;11.350;2023-09-30T04:58:38;16.60;53.40
1025;DHT22;501;48.214;11.350;2023-09-30T05:01:04;16.60;53.30
1025;DHT22;501;48.214;11.350;2023-09-30T05:03:29;16.50;53.30
1025;DHT22;501;48.214;11.350;2023-09-30T05:05:55;16.50;53.20
1025;DHT22;501;48.214;11.350;2023-09-30T05:08:23;16.50;53.30
1025;DHT22;501;48.214;11.350;2023-09-30T05:10:48;16.40;53.70
1025;DHT22;501;48.214;11.350;2023-09-30T05:13:14;16.40;54.20
1025;DHT22;501;48.214;11.350;2023-09-30T05:15:41;16.40;54.80
1025;DHT22;501;48.214;11.350;2023-09-30T05:18:07;16.40;54.80
1025;DHT22;501;48.214;11.350;2023-09-30T05:20:35;16.30;54.70
1025;DHT22;501;48.214;11.350;2023-09-30T05:23:03;16.30;54.70
1025;DHT22;501;48.214;11.350;2023-09-30T05:25:28;16.30;54.70
1025;DHT22;501;48.214;11.350;2023-09-30T05:27:54;16.30;54.70
1025;DHT22;501;48.214;11.350;2023-09-30T05:30:20;16.30;54.70
1025;DHT22;501;48.214;11.350;2023-09-30T05:32:46;16.30;54.20
1025;DHT22;501;48.214;11.350;2023-09-30T05:35:12;16.20;54.60
1025;DHT22;501;48.214;11.350;2023-09-30T05:37:42;16.20;54.60
1025;DHT22;501;48.214;11.350;2023-09-30T05:40:09;16.20;54.70
1025;DHT22;501;48.214;11.350;2023-09-30T05:42:48;16.10;54.90
1025;DHT22;501;48.214;11.350;2023-09-30T05:45:28;16.10;55.40
1025;DHT22;501;48.214;11.350;2023-09-30T05:47:56;16.10;56.00
1025;DHT22;501;48.214;11.350;2023-09-30T05:50:23;16.10;56.60
1025;DHT22;501;48.214;11.350;2023-09-30T05:52:53;16.10;57.20
1025;DHT22;501;48.214;11.350;2023-09-30T05:55:19;16.10;58.00
1025;DHT22;501;48.214;11.350;2023-09-30T05:57:47;16.10;57.30
1025;DHT22;501;48.214;11.350;2023-09-30T06:00:15;16.10;57.10
1025;DHT22;501;48.214;11.350;2023-09-30T06:02:49;16.10;56.80
1025;DHT22;501;48.214;11.350;2023-09-30T06:05:18;16.00;56.60
1025;DHT22;501;48.214;11.350;2023-09-30T06:07:51;16.10;56.50
1025;DHT22;501;48.214;11.350;2023-09-30T06:10:17;16.10;56.30
1025;DHT22;501;48.214;11.350;2023-09-30T06:12:50;16.00;56.40
1025;DHT22;501;48.214;11.350;2023-09-30T06:15:20;16.00;56.70
1025;DHT22;501;48.214;11.350;2023-09-30T06:17:51;16.00;56.50
1025;DHT22;501;48.214;11.350;2023-09-30T06:20:18;16.00;57.00
1025;DHT22;501;48.214;11.350;2023-09-30T06:22:44;16.10;57.00
1025;DHT22;501;48.214;11.350;2023-09-30T06:25:17;16.10;58.30
1025;DHT22;501;48.214;11.350;2023-09-30T06:27:44;16.10;57.10
1025;DHT22;501;48.214;11.350;2023-09-30T06:30:10;16.20;56.80
1025;DHT22;501;48.214;11.350;2023-09-30T06:32:36;16.20;55.90
1025;DHT22;501;48.214;11.350;2023-09-30T06:35:03;16.20;56.10
1025;DHT22;501;48.214;11.350;2023-09-30T06:37:29;16.30;56.40
1025;DHT22;501;48.214;11.350;2023-09-30T06:39:55;16.30;56.70
1025;DHT22;501;48.214;11.350;2023-09-30T06:42:21;16.30;56.20
1025;DHT22;501;48.214;11.350;2023-09-30T06:44:47;16.40;55.30
1025;DHT22;501;48.214;11.350;2023-09-30T06:47:12;16.40;54.80
1025;DHT22;501;48.214;11.350;2023-09-30T06:49:38;16.50;55.50
1025;DHT22;501;48.214;11.350;2023-09-30T06:52:04;16.50;54.90
1025;DHT22;501;48.214;11.350;2023-09-30T06:54:33;16.60;55.00
1025;DHT22;501;48.214;11.350;2023-09-30T06:56:59;16.70;55.00
1025;DHT22;501;48.214;11.350;2023-09-30T06:59:25;16.70;54.30
1025;DHT22;501;48.214;11.350;2023-09-30T07:01:51;16.80;53.80
1025;DHT22;501;48.214;11.350;2023-09-30T07:04:17;16.80;52.90
1025;DHT22;501;48.214;11.350;2023-09-30T07:06:42;16.80;53.40
1025;DHT22;501;48.214;11.350;2023-09-30T07:09:08;16.90;53.40
1025;DHT22;501;48.214;11.350;2023-09-30T07:11:35;16.90;53.10
1025;DHT22;501;48.214;11.350;2023-09-30T07:14:01;17.00;53.00
1025;DHT22;501;48.214;11.350;2023-09-30T07:16:29;17.00;52.60
1025;DHT22;501;48.214;11.350;2023-09-30T07:18:54;17.00;53.00
1025;DHT22;501;48.214;11.350;2023-09-30T07:21:20;17.10;52.20
1025;DHT22;501;48.214;11.350;2023-09-30T07:23:46;17.10;52.20
1025;DHT22;501;48.214;11.350;2023-09-30T07:26:13;17.20;51.40
1025;DHT22;501;48.214;11.350;2023-09-30T07:28:39;17.20;50.80
1025;DHT22;501;48.214;11.350;2023-09-30T07:31:05;17.20;50.50
1025;DHT22;501;48.214;11.350;2023-09-30T07:33:31;17.20;50.50
1025;DHT22;501;48.214;11.350;2023-09-30T07:35:56;17.20;50.10
1025;DHT22;501;48.214;11.350;2023-09-30T07:38:22;17.20;50.00
1025;DHT22;501;48.214;11.350;2023-09-30T07:40:48;17.10;50.00
1025;DHT22;501;48.214;11.350;2023-09-30T07:43:14;17.10;50.70
1025;DHT22;501;48.214;11.350;2023-09-30T07:45:40;17.10;52.00
1025;DHT22;501;48.214;11.350;2023-09-30T07:48:07;17.10;50.80
1025;DHT22;501;48.214;11.350;2023-09-30T07:50:35;17.10;51.00
1025;DHT22;501;48.214;11.350;2023-09-30T07:53:04;17.10;51.30
1025;DHT22;501;48.214;11.350;2023-09-30T07:55:30;17.20;51.40
1025;DHT22;501;48.214;11.350;2023-09-30T07:57:56;17.20;48.80
1025;DHT22;501;48.214;11.350;2023-09-30T08:00:25;17.20;48.90
1025;DHT22;501;48.214;11.350;2023-09-30T08:02:51;17.20;49.40
1025;DHT22;501;48.214;11.350;2023-09-30T08:05:17;17.20;49.90
1025;DHT22;501;48.214;11.350;2023-09-30T08:07:43;17.20;49.00
1025;DHT22;501;48.214;11.350;2023-09-30T08:10:09;17.20;48.90
1025;DHT22;501;48.214;11.350;2023-09-30T08:12:39;17.20;48.30
1025;DHT22;501;48.214;11.350;2023-09-30T08:15:07;17.20;48.80
1025;DHT22;501;48.214;11.350;2023-09-30T08:17:32;17.20;49.60
1025;DHT22;501;48.214;11.350;2023-09-30T08:19:59;17.20;48.20
1025;DHT22;501;48.214;11.350;2023-09-30T08:22:25;17.20;48.70
1025;DHT22;501;48.214;11.350;2023-09-30T08:24:54;17.20;48.30
1025;DHT22;501;48.214;11.350;2023-09-30T08:27:20;17.30;48.40
1025;DHT22;501;48.214;11.350;2023-09-30T08:29:46;17.40;47.30
1025;DHT22;501;48.214;11.350;2023-09-30T08:32:12;17.50;48.10
1025;DHT22;501;48.214;11.350;2023-09-30T08:34:38;17.60;47.10
1025;DHT22;501;48.214;11.350;2023-09-30T08:37:04;17.60;47.10
1025;DHT22;501;48.214;11.350;2023-09-30T08:39:30;17.70;46.70
1025;DHT22;501;48.214;11.350;2023-09-30T08:41:56;17.70;47.20
1025;DHT22;501;48.214;11.350;2023-09-30T08:44:22;17.80;47.30
1025;DHT22;501;48.214;11.350;2023-09-30T08:46:49;17.90;47.30
1025;DHT22;501;48.214;11.350;2023-09-30T08:49:16;17.90;48.10
1025;DHT22;501;48.214;11.350;2023-09-30T08:51:43;18.00;46.60
1025;DHT22;501;48.214;11.350;2023-09-30T08:54:09;18.20;45.10
1025;DHT22;501;48.214;11.350;2023-09-30T08:56:36;18.20;44.30
1025;DHT22;501;48.214;11.350;2023-09-30T08:59:03;18.30;44.80
1025;DHT22;501;48.214;11.350;2023-09-30T09:01:29;18.30;43.80
1025;DHT22;501;48.214;11.350;2023-09-30T09:03:56;18.40;43.40
1025;DHT22;501;48.214;11.350;2023-09-30T09:06:23;18.40;42.10
1025;DHT22;501;48.214;11.350;2023-09-30T09:08:50;18.40;42.10
1025;DHT22;501;48.214;11.350;2023-09-30T09:11:16;18.40;43.20
1025;DHT22;501;48.214;11.350;2023-09-30T09:13:51;18.40;43.60
1025;DHT22;501;48.214;11.350;2023-09-30T09:16:21;18.40;42.40
1025;DHT22;501;48.214;11.350;2023-09-30T09:18:47;18.50;42.80
1025;DHT22;501;48.214;11.350;2023-09-30T09:21:18;18.60;41.90
1025;DHT22;501;48.214;11.350;2023-09-30T09:23:46;18.60;42.10
1025;DHT22;501;48.214;11.350;2023-09-30T09:28:49;18.70;40.50
1025;DHT22;501;48.214;11.350;2023-09-30T09:31:34;18.70;40.50
1025;DHT22;501;48.214;11.350;2023-09-30T09:34:01;18.70;41.40
1025;DHT22;501;48.214;11.350;2023-09-30T09:36:42;18.70;42.00
1025;DHT22;501;48.214;11.350;2023-09-30T09:39:09;18.80;41.40
1025;DHT22;501;48.214;11.350;2023-09-30T09:41:59;18.90;41.10
1025;DHT22;501;48.214;11.350;2023-09-30T09:44:27;18.90;40.30
1025;DHT22;501;48.214;11.350;2023-09-30T09:46:53;18.90;41.80
1025;DHT22;501;48.214;11.350;2023-09-30T09:49:20;19.00;40.40
1025;DHT22;501;48.214;11.350;2023-09-30T09:51:47;19.00;40.00
1025;DHT22;501;48.214;11.350;2023-09-30T09:54:12;19.00;41.10
1025;DHT22;501;48.214;11.350;2023-09-30T09:56:39;19.00;39.70
1025;DHT22;501;48.214;11.350;2023-09-30T09:59:07;19.10;40.00
1025;DHT22;501;48.214;11.350;2023-09-30T10:01:33;19.10;39.80
1025;DHT22;501;48.214;11.350;2023-09-30T10:04:05;19.10;39.30
1025;DHT22;501;48.214;11.350;2023-09-30T10:06:31;19.10;39.30
1025;DHT22;501;48.214;11.350;2023-09-30T10:09:08;19.20;39.40
1025;DHT22;501;48.214;11.350;2023-09-30T10:11:36;19.20;39.40
1025;DHT22;501;48.214;11.350;2023-09-30T10:14:01;19.30;39.60
1025;DHT22;501;48.214;11.350;2023-09-30T10:19:11;19.40;39.60
1025;DHT22;501;48.214;11.350;2023-09-30T10:21:39;19.40;39.20
1025;DHT22;501;48.214;11.350;2023-09-30T10:40:48;19.60;37.20
1025;DHT22;501;48.214;11.350;2023-09-30T10:43:33;19.60;38.30
1025;DHT22;501;48.214;11.350;2023-09-30T10:45:59;19.70;37.70
1025;DHT22;501;48.214;11.350;2023-09-30T10:50:52;19.70;38.20
1025;DHT22;501;48.214;11.350;2023-09-30T10:53:18;19.70;34.50
1025;DHT22;501;48.214;11.350;2023-09-30T10:55:45;19.70;35.50
1025;DHT22;501;48.214;11.350;2023-09-30T10:58:14;19.70;36.00
1025;DHT22;501;48.214;11.350;2023-09-30T11:00:52;19.80;36.00
1025;DHT22;501;48.214;11.350;2023-09-30T11:03:20;19.80;36.00
1025;DHT22;501;48.214;11.350;2023-09-30T11:05:50;19.90;37.30
1025;DHT22;501;48.214;11.350;2023-09-30T11:08:21;19.90;35.90
1025;DHT22;501;48.214;11.350;2023-09-30T11:10:51;19.90;35.50
1025;DHT22;501;48.214;11.350;2023-09-30T11:13:20;19.90;34.90
1025;DHT22;501;48.214;11.350;2023-09-30T11:15:46;19.90;34.90
1025;DHT22;501;48.214;11.350;2023-09-30T11:18:16;20.00;35.00
1025;DHT22;501;48.214;11.350;2023-09-30T11:20:43;20.00;34.40
1025;DHT22;501;48.214;11.350;2023-09-30T11:23:12;20.00;34.50
1025;DHT22;501;48.214;11.350;2023-09-30T11:25:40;20.00;35.50
1025;DHT22;501;48.214;11.350;2023-09-30T11:28:16;20.10;36.30
1025;DHT22;501;48.214;11.350;2023-09-30T11:30:59;20.10;35.20
1025;DHT22;501;48.214;11.350;2023-09-30T11:33:25;20.20;35.70
1025;DHT22;501;48.214;11.350;2023-09-30T11:36:06;20.30;35.50
1025;DHT22;501;48.214;11.350;2023-09-30T11:38:34;20.30;33.80
1025;DHT22;501;48.214;11.350;2023-09-30T11:41:00;20.40;34.10
1025;DHT22;501;48.214;11.350;2023-09-30T11:43:29;20.50;33.50
1025;DHT22;501;48.214;11.350;2023-09-30T11:46:09;20.60;31.70
1025;DHT22;501;48.214;11.350;2023-09-30T11:48:35;20.60;32.90
1025;DHT22;501;48.214;11.350;2023-09-30T11:51:01;20.70;33.20
1025;DHT22;501;48.214;11.350;2023-09-30T11:53:31;20.80;32.60
1025;DHT22;501;48.214;11.350;2023-09-30T11:56:00;20.80;32.60
1025;DHT22;501;48.214;11.350;2023-09-30T11:58:28;20.90;33.10
1025;DHT22;501;48.214;11.350;2023-09-30T12:00:58;20.90;33.60
1025;DHT22;501;48.214;11.350;2023-09-30T12:03:25;20.90;33.50
1025;DHT22;501;48.214;11.350;2023-09-30T12:05:53;21.00;33.40
1025;DHT22;501;48.214;11.350;2023-09-30T12:08:21;21.00;31.80
1025;DHT22;501;48.214;11.350;2023-09-30T12:10:47;21.10;31.10
1025;DHT22;501;48.214;11.350;2023-09-30T12:13:13;21.10;30.00
1025;DHT22;501;48.214;11.350;2023-09-30T12:15:41;21.10;31.80
1025;DHT22;501;48.214;11.350;2023-09-30T12:18:06;21.20;31.00
1025;DHT22;501;48.214;11.350;2023-09-30T12:20:32;21.30;30.20
1025;DHT22;501;48.214;11.350;2023-09-30T12:22:58;21.30;30.00
1025;DHT22;501;48.214;11.350;2023-09-30T12:25:25;21.50;29.90
1025;DHT22;501;48.214;11.350;2023-09-30T12:27:53;21.80;29.40
1025;DHT22;501;48.214;11.350;2023-09-30T12:30:21;21.80;29.70
1025;DHT22;501;48.214;11.350;2023-09-30T12:32:47;21.90;29.90
1025;DHT22;501;48.214;11.350;2023-09-30T12:35:12;22.00;31.50
1025;DHT22;501;48.214;11.350;2023-09-30T12:37:38;22.10;29.30
1025;DHT22;501;48.214;11.350;2023-09-30T12:40:08;22.10;31.00
1025;DHT22;501;48.214;11.350;2023-09-30T12:42:37;22.40;29.70
1025;DHT22;501;48.214;11.350;2023-09-30T12:45:03;22.50;28.30
1025;DHT22;501;48.214;11.350;2023-09-30T12:47:31;22.50;28.20
1025;DHT22;501;48.214;11.350;2023-09-30T12:49:57;22.50;28.70
1025;DHT22;501;48.214;11.350;2023-09-30T12:52:23;22.80;28.00
1025;DHT22;501;48.214;11.350;2023-09-30T12:54:49;23.00;28.00
1025;DHT22;501;48.214;11.350;2023-09-30T12:57:15;23.10;28.40
1025;DHT22;501;48.214;11.350;2023-09-30T12:59:44;23.20;28.40
1025;DHT22;501;48.214;11.350;2023-09-30T13:02:14;23.30;27.60
1025;DHT22;501;48.214;11.350;2023-09-30T13:04:40;23.20;27.90
1025;DHT22;501;48.214;11.350;2023-09-30T13:07:12;23.10;29.10
1025;DHT22;501;48.214;11.350;2023-09-30T13:09:38;23.20;28.60
1025;DHT22;501;48.214;11.350;2023-09-30T13:12:04;23.20;27.90
1025;DHT22;501;48.214;11.350;2023-09-30T13:14:30;23.10;27.30
1025;DHT22;501;48.214;11.350;2023-09-30T13:16:56;23.10;26.90
1025;DHT22;501;48.214;11.350;2023-09-30T13:19:22;22.90;27.10
1025;DHT22;501;48.214;11.350;2023-09-30T13:21:49;22.80;28.00
1025;DHT22;501;48.214;11.350;2023-09-30T13:24:15;22.90;29.00
1025;DHT22;501;48.214;11.350;2023-09-30T13:26:41;23.10;28.80
1025;DHT22;501;48.214;11.350;2023-09-30T13:29:07;23.50;27.40
1025;DHT22;501;48.214;11.350;2023-09-30T13:31:35;23.90;27.40
1025;DHT22;501;48.214;11.350;2023-09-30T13:34:05;24.40;27.50
1025;DHT22;501;48.214;11.350;2023-09-30T13:36:31;25.00;26.50
1025;DHT22;501;48.214;11.350;2023-09-30T13:38:57;25.40;27.10
1025;DHT22;501;48.214;11.350;2023-09-30T13:41:24;25.80;25.50
1025;DHT22;501;48.214;11.350;2023-09-30T13:43:49;26.10;25.40
1025;DHT22;501;48.214;11.350;2023-09-30T13:46:15;26.40;24.50
1025;DHT22;501;48.214;11.350;2023-09-30T13:48:41;26.60;24.00
1025;DHT22;501;48.214;11.350;2023-09-30T13:51:08;26.80;23.40
1025;DHT22;501;48.214;11.350;2023-09-30T13:53:34;26.80;23.00
1025;DHT22;501;48.214;11.350;2023-09-30T13:56:00;26.70;24.50
1025;DHT22;501;48.214;11.350;2023-09-30T13:58:26;26.70;24.80
1025;DHT22;501;48.214;11.350;2023-09-30T14:00:52;26.80;23.80
1025;DHT22;501;48.214;11.350;2023-09-30T14:03:18;26.80;23.00
1025;DHT22;501;48.214;11.350;2023-09-30T14:05:45;26.80;23.10
1025;DHT22;501;48.214;11.350;2023-09-30T14:08:11;26.60;23.30
1025;DHT22;501;48.214;11.350;2023-09-30T14:10:37;26.30;23.60
1025;DHT22;501;48.214;11.350;2023-09-30T14:13:02;26.10;23.50
1025;DHT22;501;48.214;11.350;2023-09-30T14:15:30;25.70;23.20
1025;DHT22;501;48.214;11.350;2023-09-30T14:17:59;25.30;23.70
1025;DHT22;501;48.214;11.350;2023-09-30T14:20:25;25.20;24.40
1025;DHT22;501;48.214;11.350;2023-09-30T14:22:53;25.20;25.30
1025;DHT22;501;48.214;11.350;2023-09-30T14:25:23;25.40;24.20
1025;DHT22;501;48.214;11.350;2023-09-30T14:27:49;25.40;23.90
1025;DHT22;501;48.214;11.350;2023-09-30T14:30:16;25.20;24.10
1025;DHT22;501;48.214;11.350;2023-09-30T14:32:42;24.80;24.70
1025;DHT22;501;48.214;11.350;2023-09-30T14:35:10;24.50;25.00
1025;DHT22;501;48.214;11.350;2023-09-30T14:37:36;24.20;24.90
1025;DHT22;501;48.214;11.350;2023-09-30T14:40:02;23.90;26.30
1025;DHT22;501;48.214;11.350;2023-09-30T14:42:38;23.60;26.40
1025;DHT22;501;48.214;11.350;2023-09-30T14:45:04;23.40;27.90
1025;DHT22;501;48.214;11.350;2023-09-30T14:47:30;23.20;27.00
1025;DHT22;501;48.214;11.350;2023-09-30T14:49:56;23.10;26.50
1025;DHT22;501;48.214;11.350;2023-09-30T14:52:21;22.90;26.00
1025;DHT22;501;48.214;11.350;2023-09-30T14:54:47;22.70;26.90
1025;DHT22;501;48.214;11.350;2023-09-30T14:57:12;22.50;26.90
1025;DHT22;501;48.214;11.350;2023-09-30T14:59:41;22.40;27.90
1025;DHT22;501;48.214;11.350;2023-09-30T15:02:08;22.20;27.50
1025;DHT22;501;48.214;11.350;2023-09-30T15:04:34;22.00;28.40
1025;DHT22;501;48.214;11.350;2023-09-30T15:07:00;21.90;28.70
1025;DHT22;501;48.214;11.350;2023-09-30T15:09:26;21.80;29.10
1025;DHT22;501;48.214;11.350;2023-09-30T15:11:52;21.70;28.50
1025;DHT22;501;48.214;11.350;2023-09-30T15:14:19;21.60;29.00
1025;DHT22;501;48.214;11.350;2023-09-30T15:16:44;21.50;29.50
1025;DHT22;501;48.214;11.350;2023-09-30T15:19:10;21.40;29.30
1025;DHT22;501;48.214;11.350;2023-09-30T15:21:36;21.40;28.80
1025;DHT22;501;48.214;11.350;2023-09-30T15:24:02;21.30;29.60
1025;DHT22;501;48.214;11.350;2023-09-30T15:26:28;21.30;30.10
1025;DHT22;501;48.214;11.350;2023-09-30T15:28:54;21.20;29.10
1025;DHT22;501;48.214;11.350;2023-09-30T15:31:20;21.20;29.60
1025;DHT22;501;48.214;11.350;2023-09-30T15:33:46;21.10;29.50
1025;DHT22;501;48.214;11.350;2023-09-30T15:36:12;21.10;30.60
1025;DHT22;501;48.214;11.350;2023-09-30T15:38:38;21.00;29.60
1025;DHT22;501;48.214;11.350;2023-09-30T15:41:04;21.00;30.90
1025;DHT22;501;48.214;11.350;2023-09-30T15:43:30;20.90;29.80
1025;DHT22;501;48.214;11.350;2023-09-30T15:45:58;20.90;29.90
1025;DHT22;501;48.214;11.350;2023-09-30T15:48:23;20.80;29.70
1025;DHT22;501;48.214;11.350;2023-09-30T15:50:49;20.80;30.20
1025;DHT22;501;48.214;11.350;2023-09-30T15:53:15;20.70;29.80
1025;DHT22;501;48.214;11.350;2023-09-30T15:55:46;20.70;29.80
1025;DHT22;501;48.214;11.350;2023-09-30T15:58:13;20.60;31.30
1025;DHT22;501;48.214;11.350;2023-09-30T16:00:39;20.60;30.40
1025;DHT22;501;48.214;11.350;2023-09-30T16:03:05;20.50;30.60
1025;DHT22;501;48.214;11.350;2023-09-30T16:05:33;20.40;31.20
1025;DHT22;501;48.214;11.350;2023-09-30T16:07:59;20.40;31.20
1025;DHT22;501;48.214;11.350;2023-09-30T16:10:24;20.30;31.00
1025;DHT22;501;48.214;11.350;2023-09-30T16:12:50;20.20;32.60
1025;DHT22;501;48.214;11.350;2023-09-30T16:15:16;20.20;32.20
1025;DHT22;501;48.214;11.350;2023-09-30T16:17:41;20.10;33.20
1025;DHT22;501;48.214;11.350;2023-09-30T16:20:07;20.00;33.20
1025;DHT22;501;48.214;11.350;2023-09-30T16:22:34;20.00;34.00
1025;DHT22;501;48.214;11.350;2023-09-30T16:25:00;19.90;33.30
1025;DHT22;501;48.214;11.350;2023-09-30T16:27:28;19.80;32.80